Time;durP1;ratioP1;P1;durP2;ratioP2;P2;SDS_P1;SDS_P2;PMS_P1;PMS_P2;Temp;Humidity;BMP_temperature;BMP_pressure;BME280_temperature;BME280_humidity;BME280_pressure;Samples;Min_cycle;Max_cycle;Signal;HPM_P1;HPM_P2
2021/05/17 00:02:21;;;;;;;0.15;0.15;;;12.70;99.90;;;;;;5091982;28;20231;-71
2021/05/17 00:04:48;;;;;;;0.20;0.20;;;12.70;99.90;;;;;;5110581;28;20227;-70
2021/05/17 00:07:16;;;;;;;0.32;0.32;;;12.70;99.90;;;;;;5110568;28;20173;-70
2021/05/17 00:09:42;;;;;;;0.28;0.28;;;12.70;99.90;;;;;;5110581;28;20155;-70
2021/05/17 00:12:10;;;;;;;0.10;0.10;;;12.70;99.90;;;;;;5105633;28;20740;-71
2021/05/17 00:14:37;;;;;;;0.30;0.20;;;12.70;99.90;;;;;;5101171;28;20203;-70
2021/05/17 00:17:04;;;;;;;0.10;0.10;;;12.70;99.90;;;;;;5107789;28;20175;-70
2021/05/17 00:19:30;;;;;;;0.05;0.05;;;12.70;99.90;;;;;;5109696;28;20215;-70
2021/05/17 00:21:56;;;;;;;0.30;0.30;;;12.70;99.90;;;;;;5110336;28;20155;-70
2021/05/17 00:24:22;;;;;;;0.10;0.10;;;12.70;99.90;;;;;;5110352;28;20209;-71
2021/05/17 00:26:49;;;;;;;0.63;0.63;;;12.70;99.90;;;;;;5108968;28;20163;-71
2021/05/17 00:29:15;;;;;;;0.10;0.10;;;12.70;99.90;;;;;;5110198;28;20624;-71
2021/05/17 00:31:43;;;;;;;0.30;0.30;;;12.80;99.90;;;;;;5091110;28;20185;-71
2021/05/17 00:34:10;;;;;;;0.10;0.10;;;12.70;99.90;;;;;;5109967;28;20214;-71
2021/05/17 00:36:37;;;;;;;0.05;0.05;;;12.70;99.90;;;;;;5108825;28;20159;-70
2021/05/17 00:39:06;;;;;;;0.13;0.13;;;12.60;99.90;;;;;;5091854;28;20182;-70
2021/05/17 00:41:33;;;;;;;0.10;0.10;;;12.60;99.90;;;;;;5091367;28;20250;-70
2021/05/17 00:44:00;;;;;;;0.03;0.03;;;12.70;99.90;;;;;;5091358;28;20259;-70
2021/05/17 00:46:26;;;;;;;0.20;0.20;;;12.60;99.90;;;;;;5109867;28;20223;-70
2021/05/17 00:48:53;;;;;;;0.10;0.10;;;12.60;99.90;;;;;;5109743;28;20163;-70
2021/05/17 00:51:19;;;;;;;0.10;0.10;;;12.60;99.90;;;;;;5109853;28;20191;-71
2021/05/17 00:53:46;;;;;;;0.10;0.10;;;12.60;99.90;;;;;;5109940;28;20160;-71
2021/05/17 00:56:12;;;;;;;0.00;0.00;;;12.60;99.90;;;;;;5105540;28;20197;-70
2021/05/17 00:58:38;;;;;;;0.10;0.10;;;12.50;99.90;;;;;;5109562;28;20213;-70
2021/05/17 01:01:06;;;;;;;0.10;0.10;;;12.50;99.90;;;;;;5109619;28;20644;-70
2021/05/17 01:03:33;;;;;;;0.08;0.08;;;12.50;99.90;;;;;;5109443;28;20243;-72
2021/05/17 01:06:04;;;;;;;0.10;0.10;;;12.40;99.90;;;;;;5109347;28;20278;-72
2021/05/17 01:09:06;;;;;;;0.10;0.10;;;12.40;99.90;;;;;;5109461;28;20163;-71
2021/05/17 01:11:33;;;;;;;0.10;0.10;;;12.40;99.90;;;;;;5104558;28;20182;-72
2021/05/17 01:14:02;;;;;;;0.15;0.15;;;12.40;99.90;;;;;;5091051;28;20171;-70
2021/05/17 01:16:29;;;;;;;0.20;0.20;;;12.40;99.90;;;;;;5109293;28;20632;-70
2021/05/17 01:18:55;;;;;;;0.10;0.10;;;12.40;99.90;;;;;;5091236;28;20170;-72
2021/05/17 01:21:24;;;;;;;0.10;0.10;;;12.40;99.90;;;;;;5109489;28;20182;-70
2021/05/17 01:24:00;;;;;;;0.10;0.10;;;12.30;99.90;;;;;;5109285;28;20215;-71
2021/05/17 01:26:35;;;;;;;0.22;0.20;;;12.30;99.90;;;;;;5091063;28;20174;-72
2021/05/17 01:29:05;;;;;;;0.17;0.17;;;12.20;99.90;;;;;;5109152;28;20159;-71
2021/05/17 01:31:31;;;;;;;0.00;0.00;;;12.30;99.90;;;;;;5090923;28;20175;-72
2021/05/17 01:33:58;;;;;;;0.38;0.38;;;12.30;99.90;;;;;;5109026;28;20156;-71
2021/05/17 01:36:24;;;;;;;0.17;0.17;;;12.30;99.90;;;;;;5109012;28;20205;-71
2021/05/17 01:38:53;;;;;;;0.10;0.10;;;12.20;99.90;;;;;;5090910;28;20179;-71
2021/05/17 01:41:21;;;;;;;0.10;0.10;;;12.20;99.90;;;;;;5108805;28;20207;-71
2021/05/17 01:43:51;;;;;;;0.10;0.10;;;12.20;99.90;;;;;;5090400;28;20198;-71
2021/05/17 01:46:20;;;;;;;0.10;0.10;;;12.20;99.90;;;;;;5109031;28;20156;-70
2021/05/17 01:48:46;;;;;;;0.20;0.20;;;12.20;99.90;;;;;;5108883;28;20211;-71
2021/05/17 01:51:18;;;;;;;0.20;0.20;;;12.30;99.90;;;;;;5090671;28;20197;-71
2021/05/17 01:53:46;;;;;;;0.10;0.10;;;12.30;99.90;;;;;;5090521;28;20167;-70
2021/05/17 01:56:13;;;;;;;0.22;0.22;;;12.30;99.90;;;;;;5108509;28;20210;-71
2021/05/17 01:58:40;;;;;;;0.20;0.20;;;12.30;99.90;;;;;;5108906;28;20156;-71
2021/05/17 02:01:11;;;;;;;0.05;0.05;;;12.30;99.90;;;;;;5108807;28;20167;-71
2021/05/17 02:03:38;;;;;;;0.77;0.57;;;12.30;99.90;;;;;;5108899;28;20242;-71
2021/05/17 02:06:06;;;;;;;0.10;0.10;;;12.20;99.90;;;;;;5108750;28;20212;-71
2021/05/17 02:08:32;;;;;;;0.10;0.10;;;12.20;99.90;;;;;;5108857;28;20177;-71
2021/05/17 02:11:00;;;;;;;0.28;0.20;;;12.20;99.90;;;;;;5108816;28;20234;-71
2021/05/17 02:13:27;;;;;;;0.10;0.10;;;12.10;99.90;;;;;;5090591;28;20217;-71
2021/05/17 02:15:54;;;;;;;0.00;0.00;;;12.00;99.90;;;;;;5108543;28;20208;-71
2021/05/17 02:18:20;;;;;;;0.03;0.03;;;12.10;99.90;;;;;;5108790;28;20177;-70
2021/05/17 02:20:47;;;;;;;0.00;0.00;;;12.00;99.90;;;;;;5090692;28;20163;-71
2021/05/17 02:23:16;;;;;;;0.08;0.08;;;11.80;99.90;;;;;;5108549;28;20234;-71
2021/05/17 02:25:49;;;;;;;0.10;0.10;;;11.70;99.90;;;;;;5108828;28;20155;-71
2021/05/17 02:28:18;;;;;;;0.10;0.10;;;11.70;99.90;;;;;;5108684;28;20257;-71
2021/05/17 02:30:46;;;;;;;0.00;0.00;;;11.70;99.90;;;;;;5108749;28;20159;-71
2021/05/17 02:33:13;;;;;;;0.10;0.10;;;11.60;99.90;;;;;;5108561;28;20251;-70
2021/05/17 02:35:40;;;;;;;0.10;0.10;;;11.60;99.90;;;;;;5108515;28;20195;-71
2021/05/17 02:38:08;;;;;;;0.10;0.10;;;11.60;99.90;;;;;;5108586;28;20190;-71
2021/05/17 02:40:34;;;;;;;0.10;0.10;;;11.50;99.90;;;;;;5108542;28;20261;-70
2021/05/17 02:43:11;;;;;;;0.40;0.40;;;11.50;99.90;;;;;;5108862;28;20197;-71
2021/05/17 02:45:39;;;;;;;0.10;0.10;;;11.50;99.90;;;;;;5108924;28;20159;-71
2021/05/17 02:48:07;;;;;;;0.10;0.10;;;11.50;99.90;;;;;;5108668;28;20183;-71
2021/05/17 02:50:35;;;;;;;0.10;0.10;;;11.50;99.90;;;;;;5090838;28;20171;-70
2021/05/17 02:53:22;;;;;;;0.00;0.00;;;11.50;99.90;;;;;;5108527;28;20167;-70
2021/05/17 02:55:50;;;;;;;0.08;0.08;;;11.50;99.90;;;;;;5091418;28;20206;-71
2021/05/17 02:58:18;;;;;;;0.20;0.20;;;11.50;99.90;;;;;;5111940;28;20297;-71
2021/05/17 03:00:52;;;;;;;0.00;0.00;;;11.40;99.90;;;;;;5112240;28;20238;-71
2021/05/17 03:03:24;;;;;;;0.03;0.03;;;11.50;99.90;;;;;;5112076;28;20151;-70
2021/05/17 03:06:03;;;;;;;0.10;0.10;;;11.40;99.90;;;;;;5112245;28;20170;-71
2021/05/17 03:08:33;;;;;;;0.10;0.10;;;11.50;99.90;;;;;;5093694;28;20202;-70
2021/05/17 03:11:01;;;;;;;0.13;0.13;;;11.40;99.90;;;;;;5111994;28;20204;-71
2021/05/17 03:13:28;;;;;;;0.03;0.03;;;11.40;99.90;;;;;;5093621;28;20167;-70
2021/05/17 03:15:54;;;;;;;0.15;0.15;;;11.40;99.90;;;;;;5111776;28;20678;-70
2021/05/17 03:18:20;;;;;;;0.10;0.10;;;11.40;99.90;;;;;;5093675;28;20171;-70
2021/05/17 03:20:46;;;;;;;0.00;0.00;;;11.40;99.90;;;;;;5111865;28;20612;-71
2021/05/17 03:23:14;;;;;;;0.00;0.00;;;11.40;99.90;;;;;;5111904;28;20245;-70
2021/05/17 03:25:46;;;;;;;0.00;0.00;;;11.40;99.90;;;;;;5111766;28;20182;-70
2021/05/17 03:28:13;;;;;;;0.20;0.20;;;11.40;99.90;;;;;;5093340;28;20195;-70
2021/05/17 03:30:39;;;;;;;0.45;0.45;;;11.40;99.90;;;;;;5111725;28;20215;-71
2021/05/17 03:33:05;;;;;;;0.10;0.10;;;11.40;99.90;;;;;;5111605;28;20171;-70
2021/05/17 03:35:31;;;;;;;0.10;0.10;;;11.50;99.90;;;;;;5093187;28;20266;-70
2021/05/17 03:37:57;;;;;;;0.13;0.13;;;11.50;99.90;;;;;;5111472;28;20240;-70
2021/05/17 03:40:24;;;;;;;0.10;0.10;;;11.60;99.90;;;;;;5111163;28;20270;-70
2021/05/17 03:42:50;;;;;;;0.03;0.03;;;11.50;99.90;;;;;;5111344;28;20171;-70
2021/05/17 03:45:16;;;;;;;0.20;0.20;;;11.50;99.90;;;;;;5110666;28;20202;-70
2021/05/17 03:47:43;;;;;;;0.10;0.10;;;11.50;99.90;;;;;;5111324;28;20232;-70
2021/05/17 03:50:12;;;;;;;1.17;0.65;;;11.50;99.90;;;;;;5111081;28;20155;-70
2021/05/17 03:52:38;;;;;;;0.10;0.10;;;11.60;99.90;;;;;;5111185;28;20204;-69
2021/05/17 03:55:05;;;;;;;0.45;0.45;;;11.60;99.90;;;;;;5111044;28;20644;-71
2021/05/17 03:57:32;;;;;;;0.10;0.10;;;11.60;99.90;;;;;;5092909;28;20668;-70
2021/05/17 03:59:58;;;;;;;0.10;0.10;;;11.60;99.90;;;;;;5110957;28;20171;-70
2021/05/17 04:02:25;;;;;;;0.22;0.22;;;11.70;99.90;;;;;;5110654;28;20152;-69
2021/05/17 04:15:37;;;;;;;0.08;0.08;;;11.30;99.90;;;;;;5110267;28;20202;-69
2021/05/17 04:18:03;;;;;;;0.00;0.00;;;11.20;99.90;;;;;;5110379;28;20513;-70
2021/05/17 04:20:29;;;;;;;0.10;0.10;;;11.20;99.90;;;;;;5110769;28;20162;-70
2021/05/17 04:22:54;;;;;;;0.00;0.00;;;11.20;99.90;;;;;;5110281;28;20162;-70
2021/05/17 04:25:20;;;;;;;0.10;0.10;;;11.30;99.90;;;;;;5110614;28;20218;-70
2021/05/17 04:27:46;;;;;;;0.10;0.10;;;11.30;99.90;;;;;;5110345;28;20170;-70
2021/05/17 04:30:13;;;;;;;0.10;0.10;;;11.40;99.90;;;;;;5110348;28;20194;-70
2021/05/17 04:32:39;;;;;;;0.00;0.00;;;11.50;99.90;;;;;;5110420;28;20182;-70
2021/05/17 04:35:05;;;;;;;0.00;0.00;;;11.50;99.90;;;;;;5091820;28;20235;-70
2021/05/17 04:37:31;;;;;;;0.10;0.10;;;11.50;99.90;;;;;;5110224;28;20159;-70
2021/05/17 04:39:57;;;;;;;0.10;0.05;;;11.50;99.90;;;;;;5110020;28;20652;-70
2021/05/17 04:42:23;;;;;;;0.10;0.10;;;11.50;99.90;;;;;;5109976;28;20163;-71
2021/05/17 04:44:49;;;;;;;0.25;0.25;;;11.50;99.90;;;;;;5110112;28;20187;-70
2021/05/17 04:47:14;;;;;;;0.10;0.10;;;11.60;99.90;;;;;;5109901;28;20163;-71
2021/05/17 04:49:40;;;;;;;0.15;0.10;;;11.70;99.90;;;;;;5091877;28;20242;-70
2021/05/17 04:52:07;;;;;;;0.57;0.57;;;11.70;99.90;;;;;;5110000;28;20223;-70
2021/05/17 04:54:33;;;;;;;0.28;0.28;;;11.70;99.90;;;;;;5109906;28;20195;-70
2021/05/17 04:56:58;;;;;;;0.17;0.17;;;11.80;99.90;;;;;;5091642;28;20657;-70
2021/05/17 04:59:25;;;;;;;0.03;0.03;;;11.80;99.90;;;;;;5109524;28;20261;-70
2021/05/17 05:01:51;;;;;;;0.03;0.03;;;11.80;99.90;;;;;;5090927;28;20163;-70
2021/05/17 05:04:17;;;;;;;1.65;0.68;;;11.90;99.90;;;;;;5102831;28;20205;-69
2021/05/17 05:06:43;;;;;;;0.00;0.00;;;11.90;99.90;;;;;;5109761;28;20170;-69
2021/05/17 05:09:09;;;;;;;0.52;0.52;;;11.90;99.90;;;;;;5103389;28;20159;-70
2021/05/17 05:11:34;;;;;;;0.20;0.20;;;11.90;99.90;;;;;;5109340;28;20150;-70
2021/05/17 05:14:00;;;;;;;0.10;0.10;;;11.90;99.90;;;;;;5091286;28;20167;-70
2021/05/17 05:16:26;;;;;;;0.25;0.25;;;11.90;99.90;;;;;;5109346;28;20195;-70
2021/05/17 05:18:52;;;;;;;1.08;1.08;;;11.90;99.90;;;;;;5090622;28;20159;-68
2021/05/17 05:21:18;;;;;;;0.10;0.10;;;11.80;99.90;;;;;;5109542;28;20155;-68
2021/05/17 05:23:47;;;;;;;0.32;0.32;;;11.80;99.90;;;;;;5109537;28;20247;-70
2021/05/17 05:33:57;;;;;;;0.70;0.50;;;11.90;99.90;;;;;;5109277;28;20163;-70
2021/05/17 05:36:24;;;;;;;0.10;0.10;;;11.90;99.90;;;;;;5109152;28;20286;-70
2021/05/17 05:38:50;;;;;;;0.75;0.75;;;11.90;99.90;;;;;;5109279;28;20143;-69
2021/05/17 05:41:16;;;;;;;0.20;0.20;;;11.80;99.90;;;;;;5108727;28;20219;-70
2021/05/17 05:43:41;;;;;;;0.10;0.10;;;11.90;99.90;;;;;;5109256;28;20180;-69
2021/05/17 05:46:07;;;;;;;0.20;0.20;;;11.90;99.90;;;;;;5108808;28;20194;-69
2021/05/17 05:48:46;;;;;;;0.10;0.10;;;11.90;99.90;;;;;;5108834;28;20185;-70
2021/05/17 05:51:23;;;;;;;0.20;0.20;;;12.00;99.90;;;;;;5108899;28;20151;-69
2021/05/17 05:53:51;;;;;;;0.10;0.10;;;12.00;99.90;;;;;;5108999;28;20685;-70
2021/05/17 05:56:18;;;;;;;1.55;1.45;;;12.00;99.90;;;;;;5105596;28;20278;-69
2021/05/17 05:58:46;;;;;;;0.00;0.00;;;12.10;99.90;;;;;;5097198;28;20160;-69
2021/05/17 06:01:12;;;;;;;2.15;0.45;;;12.10;99.90;;;;;;5098871;28;20533;-70
2021/05/17 06:03:38;;;;;;;1.88;1.30;;;12.00;99.90;;;;;;5080985;28;20172;-70
2021/05/17 06:06:07;;;;;;;0.20;0.20;;;11.90;99.90;;;;;;5097215;28;20183;-69
2021/05/17 06:08:35;;;;;;;0.00;0.00;;;11.90;99.90;;;;;;5098468;28;20171;-69
2021/05/17 06:11:02;;;;;;;0.40;0.28;;;11.80;99.90;;;;;;5099429;28;20211;-69
2021/05/17 06:13:28;;;;;;;0.10;0.10;;;11.80;99.90;;;;;;5079392;28;20659;-70
2021/05/17 06:15:54;;;;;;;0.10;0.10;;;11.80;99.90;;;;;;5098101;28;20202;-69
2021/05/17 06:18:21;;;;;;;0.65;0.65;;;11.90;99.90;;;;;;5098870;28;20164;-70
2021/05/17 06:20:47;;;;;;;0.00;0.00;;;12.00;99.90;;;;;;5097338;28;20186;-69
2021/05/17 06:23:15;;;;;;;1.35;0.90;;;11.90;99.90;;;;;;5098561;28;20213;-69
2021/05/17 06:25:42;;;;;;;0.22;0.22;;;12.00;99.90;;;;;;5080679;28;20214;-70
2021/05/17 06:28:09;;;;;;;0.10;0.10;;;12.00;99.90;;;;;;5097220;28;20184;-69
2021/05/17 06:30:43;;;;;;;0.20;0.13;;;12.00;99.90;;;;;;5099308;28;20167;-69
2021/05/17 06:33:10;;;;;;;0.08;0.08;;;12.00;99.90;;;;;;5102728;28;20622;-69
2021/05/17 06:35:45;;;;;;;0.00;0.00;;;12.00;99.90;;;;;;5094446;28;20232;-69
2021/05/17 06:38:15;;;;;;;0.10;0.10;;;12.00;99.90;;;;;;5092283;28;20238;-69
2021/05/17 06:40:41;;;;;;;0.20;0.20;;;12.10;99.90;;;;;;5064062;28;20283;-69
2021/05/17 06:43:08;;;;;;;0.10;0.10;;;12.10;99.90;;;;;;5051992;28;20182;-69
2021/05/17 06:45:35;;;;;;;0.28;0.28;;;12.30;99.90;;;;;;5050719;28;20203;-70
2021/05/17 06:48:01;;;;;;;0.20;0.20;;;12.60;99.90;;;;;;5051755;28;20195;-70
2021/05/17 06:50:29;;;;;;;0.30;0.30;;;12.50;99.90;;;;;;5051971;28;20164;-69
2021/05/17 06:52:55;;;;;;;0.43;0.43;;;12.50;99.90;;;;;;5051848;28;20153;-70
2021/05/17 06:55:23;;;;;;;0.00;0.00;;;12.60;99.90;;;;;;5051759;28;20212;-69
2021/05/17 06:58:07;;;;;;;4.07;0.47;;;12.60;99.90;;;;;;5052009;28;20153;-70
2021/05/17 07:00:34;;;;;;;0.10;0.10;;;12.50;99.90;;;;;;5051805;28;20158;-69
2021/05/17 07:03:06;;;;;;;0.17;0.17;;;12.60;99.90;;;;;;5050396;28;20181;-70
2021/05/17 07:05:35;;;;;;;0.10;0.10;;;12.60;99.90;;;;;;5051759;28;20197;-70
2021/05/17 07:13:12;;;;;;;0.20;0.20;;;12.90;99.90;;;;;;5051640;28;20219;-69
2021/05/17 07:15:38;;;;;;;0.00;0.00;;;13.00;99.90;;;;;;5051494;28;20205;-70
2021/05/17 07:18:05;;;;;;;0.08;0.08;;;13.00;99.90;;;;;;5058407;28;20179;-70
2021/05/17 07:25:59;;;;;;;0.25;0.25;;;13.50;99.90;;;;;;5071254;28;20196;-70
2021/05/17 07:28:26;;;;;;;0.10;0.10;;;13.50;99.90;;;;;;5071126;28;20181;-70
2021/05/17 07:30:52;;;;;;;0.10;0.10;;;13.60;99.90;;;;;;5071138;28;20157;-70
2021/05/17 07:33:17;;;;;;;0.10;0.10;;;13.50;99.90;;;;;;5071206;28;20199;-70
2021/05/17 07:35:44;;;;;;;0.10;0.10;;;13.40;99.90;;;;;;5070980;28;20260;-70
2021/05/17 07:38:10;;;;;;;0.50;0.50;;;13.40;99.90;;;;;;5069661;28;20173;-70
2021/05/17 07:40:36;;;;;;;1.48;0.63;;;13.30;99.90;;;;;;5075034;28;20226;-70
2021/05/17 07:43:03;;;;;;;0.10;0.10;;;13.10;99.90;;;;;;5090670;28;20179;-70
2021/05/17 07:45:30;;;;;;;0.10;0.10;;;13.00;99.90;;;;;;5090909;28;20187;-69
2021/05/17 07:47:56;;;;;;;0.20;0.20;;;13.00;99.90;;;;;;5089676;28;20176;-70
2021/05/17 07:50:21;;;;;;;0.28;0.28;;;12.90;99.90;;;;;;5083660;28;20207;-70
2021/05/17 07:52:48;;;;;;;0.17;0.17;;;12.80;99.90;;;;;;5089321;28;20189;-70
2021/05/17 07:55:20;;;;;;;0.20;0.20;;;12.80;99.90;;;;;;5089052;28;20588;-70
2021/05/17 07:57:46;;;;;;;0.10;0.10;;;12.80;99.90;;;;;;5089975;28;20168;-70
2021/05/17 08:00:13;;;;;;;0.20;0.20;;;12.80;99.90;;;;;;5090583;28;20178;-70
2021/05/17 08:02:40;;;;;;;0.10;0.10;;;12.90;99.90;;;;;;5089525;28;20564;-70
2021/05/17 08:05:06;;;;;;;0.10;0.10;;;12.80;99.90;;;;;;5090490;28;20233;-70
2021/05/17 08:07:35;;;;;;;0.00;0.00;;;12.90;99.90;;;;;;5077740;28;20168;-70
2021/05/17 08:10:03;;;;;;;0.10;0.10;;;12.80;99.90;;;;;;5070566;28;20160;-70
2021/05/17 08:12:29;;;;;;;0.20;0.20;;;12.80;99.90;;;;;;5083134;28;20178;-70
2021/05/17 08:14:55;;;;;;;0.52;0.52;;;12.70;99.90;;;;;;5089551;28;20204;-70
2021/05/17 08:17:20;;;;;;;0.52;0.52;;;12.60;99.90;;;;;;5090323;28;20152;-69
2021/05/17 08:19:46;;;;;;;0.00;0.00;;;12.50;99.90;;;;;;5090152;28;20157;-70
2021/05/17 08:22:12;;;;;;;0.10;0.10;;;12.50;99.90;;;;;;5090236;28;20185;-70
2021/05/17 08:24:39;;;;;;;0.10;0.10;;;12.60;99.90;;;;;;5088083;28;20195;-70
2021/05/17 08:27:05;;;;;;;0.35;0.35;;;12.70;99.90;;;;;;5089877;28;20172;-71
2021/05/17 08:29:35;;;;;;;0.10;0.10;;;12.90;99.90;;;;;;5089947;28;20164;-71
2021/05/17 08:32:03;;;;;;;0.05;0.05;;;13.10;99.90;;;;;;5089801;28;20217;-71
2021/05/17 08:34:30;;;;;;;0.22;0.22;;;13.20;99.90;;;;;;5089024;28;20195;-70
2021/05/17 08:36:57;;;;;;;0.00;0.00;;;13.10;99.90;;;;;;5089838;28;20156;-70
2021/05/17 08:39:22;;;;;;;0.10;0.10;;;13.20;99.90;;;;;;5089797;28;20682;-70
2021/05/17 08:41:48;;;;;;;0.00;0.00;;;13.30;99.90;;;;;;5105504;28;20303;-71
2021/05/17 08:44:14;;;;;;;0.10;0.10;;;13.50;99.90;;;;;;5110190;28;20666;-70
2021/05/17 08:46:46;;;;;;;0.10;0.10;;;13.60;99.90;;;;;;5109533;28;20166;-70
2021/05/17 08:49:16;;;;;;;0.10;0.10;;;13.40;99.90;;;;;;5109880;28;20221;-70
2021/05/17 08:51:44;;;;;;;0.10;0.10;;;13.60;99.90;;;;;;5109896;28;20151;-71
2021/05/17 08:54:10;;;;;;;0.08;0.08;;;13.90;99.90;;;;;;5090663;28;20687;-70
2021/05/17 08:56:43;;;;;;;0.10;0.10;;;14.00;99.90;;;;;;5109126;28;20191;-71
2021/05/17 08:59:10;;;;;;;1.95;0.75;;;14.20;99.90;;;;;;5091352;28;20163;-71
2021/05/17 09:01:36;;;;;;;0.20;0.20;;;14.20;99.90;;;;;;5109736;28;20179;-71
2021/05/17 09:04:06;;;;;;;0.10;0.10;;;14.20;99.90;;;;;;5091420;28;20191;-70
2021/05/17 09:06:54;;;;;;;0.20;0.20;;;14.30;99.90;;;;;;5108994;28;20191;-71
2021/05/17 09:09:37;;;;;;;0.17;0.13;;;14.70;99.90;;;;;;5109731;28;20162;-71
2021/05/17 09:12:13;;;;;;;0.10;0.10;;;14.80;99.90;;;;;;5091271;28;20247;-70
2021/05/17 09:14:41;;;;;;;0.43;0.43;;;14.70;99.90;;;;;;5109462;28;20198;-71
2021/05/17 09:17:09;;;;;;;0.10;0.10;;;14.70;99.90;;;;;;5109177;28;20144;-71
2021/05/17 09:19:39;;;;;;;0.10;0.10;;;14.70;99.90;;;;;;5109324;28;20183;-71
2021/05/17 09:22:19;;;;;;;0.10;0.10;;;14.70;99.90;;;;;;5109291;28;20177;-71
2021/05/17 09:24:49;;;;;;;0.10;0.10;;;14.80;99.90;;;;;;5090803;28;20586;-71
2021/05/17 09:27:26;;;;;;;0.10;0.10;;;15.00;99.90;;;;;;5109552;28;20160;-71
2021/05/17 09:29:54;;;;;;;0.10;0.10;;;15.10;99.90;;;;;;5090754;28;20244;-71
2021/05/17 09:32:24;;;;;;;0.30;0.30;;;15.20;99.90;;;;;;5090995;28;20182;-71
2021/05/17 09:34:59;;;;;;;0.10;0.10;;;15.30;99.90;;;;;;5109487;28;20187;-71
2021/05/17 09:37:26;;;;;;;0.28;0.28;;;15.20;99.90;;;;;;5109348;28;20147;-71
2021/05/17 09:39:53;;;;;;;0.13;0.13;;;15.50;99.90;;;;;;5091238;28;20226;-71
2021/05/17 09:42:22;;;;;;;0.10;0.10;;;15.60;99.90;;;;;;5109190;28;20219;-71
2021/05/17 09:44:49;;;;;;;0.13;0.13;;;15.70;99.90;;;;;;5109183;28;20222;-71
2021/05/17 09:47:23;;;;;;;0.10;0.10;;;15.80;99.90;;;;;;5109275;28;20175;-71
2021/05/17 09:49:56;;;;;;;0.10;0.10;;;15.80;99.90;;;;;;5109000;28;20281;-71
2021/05/17 09:52:25;;;;;;;0.10;0.10;;;15.70;99.90;;;;;;5108789;28;20178;-71
2021/05/17 09:55:02;;;;;;;0.10;0.10;;;15.60;99.90;;;;;;5108984;28;20183;-72
2021/05/17 09:57:37;;;;;;;0.10;0.10;;;15.30;99.90;;;;;;5090895;28;20174;-71
2021/05/17 10:00:06;;;;;;;0.10;0.10;;;15.00;99.90;;;;;;5109129;28;20147;-72
2021/05/17 10:02:42;;;;;;;0.10;0.10;;;15.00;99.90;;;;;;5109022;28;20186;-71
2021/05/17 10:05:18;;;;;;;0.10;0.10;;;14.90;99.90;;;;;;5111506;28;20548;-71
2021/05/17 10:07:46;;;;;;;0.10;0.10;;;14.60;99.90;;;;;;5113270;28;20146;-71
2021/05/17 10:10:13;;;;;;;0.00;0.00;;;14.70;99.90;;;;;;5113099;28;20163;-71
2021/05/17 10:12:39;;;;;;;0.10;0.10;;;14.60;99.90;;;;;;5113253;28;20155;-71
2021/05/17 10:15:08;;;;;;;0.10;0.10;;;14.40;99.90;;;;;;5094208;28;20259;-71
2021/05/17 10:17:34;;;;;;;0.10;0.10;;;14.40;99.90;;;;;;5093640;28;20235;-68
2021/05/17 10:20:02;;;;;;;0.30;0.30;;;14.30;99.90;;;;;;5112370;28;20159;-71
2021/05/17 10:22:29;;;;;;;0.10;0.10;;;14.10;99.90;;;;;;5112762;28;20163;-71
2021/05/17 10:24:58;;;;;;;0.25;0.25;;;13.90;99.90;;;;;;5112559;28;20163;-70
2021/05/17 10:27:27;;;;;;;0.00;0.00;;;13.90;99.90;;;;;;5112920;28;20174;-70
2021/05/17 10:30:03;;;;;;;0.10;0.10;;;13.90;99.90;;;;;;5112263;28;20190;-70
2021/05/17 10:32:54;;;;;;;0.30;0.30;;;13.90;99.90;;;;;;5112346;28;20171;-70
2021/05/17 10:35:28;;;;;;;0.05;0.05;;;13.90;99.90;;;;;;5094355;28;20197;-70
2021/05/17 10:38:13;;;;;;;0.10;0.10;;;13.90;99.90;;;;;;5112492;28;20556;-71
2021/05/17 10:40:41;;;;;;;0.10;0.10;;;13.90;99.90;;;;;;5090640;28;20283;-70
2021/05/17 10:43:21;;;;;;;0.10;0.10;;;13.80;99.90;;;;;;5091931;28;20148;-70
2021/05/17 10:48:26;;;;;;;0.30;0.30;;;14.00;99.90;;;;;;5091872;28;20196;-70
2021/05/17 10:51:17;;;;;;;1.45;0.30;;;14.00;99.90;;;;;;5090600;28;20186;-70
2021/05/17 10:53:44;;;;;;;0.88;0.82;;;14.00;99.90;;;;;;5090664;28;20505;-70
2021/05/17 10:56:12;;;;;;;0.20;0.20;;;13.80;99.90;;;;;;5092065;28;20184;-70
2021/05/17 11:01:56;;;;;;;0.10;0.10;;;13.90;99.90;;;;;;5091944;28;20177;-70
2021/05/17 11:04:24;;;;;;;0.20;0.20;;;14.00;99.90;;;;;;5090529;28;20175;-70
2021/05/17 11:07:13;;;;;;;0.15;0.15;;;14.10;99.90;;;;;;5091594;28;20157;-70
2021/05/17 11:09:48;;;;;;;0.13;0.13;;;14.20;99.90;;;;;;5090200;28;20188;-70
2021/05/17 11:12:26;;;;;;;0.10;0.10;;;14.10;99.90;;;;;;5090088;28;20182;-70
2021/05/17 11:15:14;;;;;;;0.10;0.10;;;14.00;99.90;;;;;;5089941;28;20199;-70
2021/05/17 11:18:00;;;;;;;0.10;0.10;;;14.00;99.90;;;;;;5090408;28;20244;-70
2021/05/17 11:20:41;;;;;;;0.10;0.10;;;14.20;99.90;;;;;;5091553;28;20148;-70
2021/05/17 11:23:12;;;;;;;0.10;0.10;;;14.20;99.90;;;;;;5091289;28;20148;-70
2021/05/17 11:31:34;;;;;;;0.20;0.20;;;15.00;99.90;;;;;;5029242;28;20201;-70
2021/05/17 11:34:07;;;;;;;0.17;0.17;;;15.30;99.90;;;;;;5029248;28;20164;-70
2021/05/17 11:36:42;;;;;;;0.10;0.10;;;15.50;99.90;;;;;;5012515;28;20197;-70
2021/05/17 11:39:13;;;;;;;0.10;0.10;;;15.60;99.90;;;;;;5012245;28;20273;-70
2021/05/17 11:41:44;;;;;;;0.10;0.10;;;15.50;99.90;;;;;;5029004;28;20225;-69
2021/05/17 11:44:14;;;;;;;0.10;0.10;;;15.10;99.90;;;;;;5028935;28;20193;-71
2021/05/17 11:46:46;;;;;;;0.15;0.15;;;15.00;99.90;;;;;;5028974;28;20186;-70
2021/05/17 11:49:20;;;;;;;0.08;0.08;;;15.20;99.90;;;;;;5028229;28;20198;-70
2021/05/17 11:51:47;;;;;;;0.25;0.25;;;15.30;99.90;;;;;;5010153;28;20281;-70
2021/05/17 11:54:13;;;;;;;0.20;0.20;;;15.60;99.90;;;;;;5028903;28;20705;-71
2021/05/17 11:56:43;;;;;;;0.50;0.40;;;15.90;99.90;;;;;;5028794;28;20198;-70
2021/05/17 11:59:11;;;;;;;1.27;0.43;;;15.90;99.90;;;;;;5044644;28;20205;-70
2021/05/17 12:01:41;;;;;;;0.20;0.20;;;15.70;99.90;;;;;;5031363;28;20201;-71
2021/05/17 12:04:19;;;;;;;0.10;0.10;;;15.80;99.90;;;;;;5047598;28;20211;-69
2021/05/17 12:06:48;;;;;;;0.10;0.10;;;16.20;99.90;;;;;;5070600;28;20231;-70
2021/05/17 12:09:51;;;;;;;0.10;0.10;;;16.60;99.90;;;;;;5066782;28;20207;-71
2021/05/17 12:12:23;;;;;;;0.10;0.10;;;16.80;99.90;;;;;;5065115;28;20196;-71
2021/05/17 12:14:50;;;;;;;0.10;0.10;;;16.80;99.90;;;;;;5069452;28;20276;-71
2021/05/17 12:17:17;;;;;;;0.10;0.10;;;16.50;99.90;;;;;;5070075;28;20161;-71
2021/05/17 12:19:48;;;;;;;0.10;0.10;;;16.40;99.90;;;;;;5068779;28;20234;-70
2021/05/17 12:22:18;;;;;;;0.10;0.10;;;16.20;99.90;;;;;;5069990;28;20188;-70
2021/05/17 12:24:44;;;;;;;0.17;0.17;;;16.30;99.90;;;;;;5068784;28;20272;-71
2021/05/17 12:27:12;;;;;;;0.10;0.10;;;16.40;99.90;;;;;;5069592;28;20235;-70
2021/05/17 12:29:55;;;;;;;0.10;0.10;;;16.70;99.90;;;;;;5069984;28;20161;-70
2021/05/17 12:32:42;;;;;;;0.10;0.10;;;16.70;99.90;;;;;;5069817;28;20235;-71
2021/05/17 12:35:16;;;;;;;0.10;0.10;;;16.30;99.90;;;;;;5069364;28;20216;-71
2021/05/17 12:37:44;;;;;;;0.10;0.10;;;16.30;99.90;;;;;;5069121;28;20156;-71
2021/05/17 12:40:33;;;;;;;0.10;0.10;;;15.80;99.90;;;;;;5073486;28;20157;-71
2021/05/17 12:43:08;;;;;;;0.10;0.10;;;15.60;99.90;;;;;;5110279;28;20169;-70
2021/05/17 12:45:56;;;;;;;0.10;0.10;;;15.60;99.90;;;;;;5110222;28;20163;-71
2021/05/17 12:48:54;;;;;;;0.10;0.10;;;15.70;99.90;;;;;;5094062;28;20207;-71
2021/05/17 12:51:23;;;;;;;0.10;0.10;;;15.80;99.90;;;;;;5106964;28;20210;-71
2021/05/17 12:53:51;;;;;;;0.10;0.10;;;16.00;99.90;;;;;;5110166;28;20639;-71
2021/05/17 12:56:29;;;;;;;0.10;0.10;;;16.10;99.90;;;;;;5109997;28;20214;-70
2021/05/17 12:58:55;;;;;;;0.10;0.10;;;16.10;99.90;;;;;;5109558;28;20188;-71
2021/05/17 13:01:24;;;;;;;0.10;0.10;;;16.30;99.90;;;;;;5091684;28;20286;-71
2021/05/17 13:03:51;;;;;;;0.10;0.10;;;16.40;99.90;;;;;;5091789;28;20165;-72
2021/05/17 13:06:24;;;;;;;0.10;0.10;;;16.30;99.90;;;;;;5091805;28;20163;-72
2021/05/17 13:09:18;;;;;;;0.20;0.20;;;16.10;99.90;;;;;;5090921;28;20181;-71
2021/05/17 13:11:44;;;;;;;0.10;0.10;;;16.20;99.90;;;;;;5091347;28;20252;-73
2021/05/17 13:14:12;;;;;;;2.10;1.38;;;16.30;99.90;;;;;;5109693;28;20210;-73
2021/05/17 13:16:41;;;;;;;0.10;0.10;;;16.30;99.90;;;;;;5109607;28;20179;-73
2021/05/17 13:33:28;;;;;;;0.10;0.10;;;17.30;99.90;;;;;;5109528;28;20163;-73
2021/05/17 13:35:57;;;;;;;0.30;0.30;;;17.60;99.90;;;;;;5109234;28;20266;-73
2021/05/17 13:38:24;;;;;;;0.10;0.10;;;17.60;99.90;;;;;;5109114;28;20695;-73
2021/05/17 13:40:50;;;;;;;4.78;0.30;;;17.30;99.90;;;;;;5108854;28;20222;-73
2021/05/17 13:43:16;;;;;;;0.10;0.10;;;17.00;99.90;;;;;;5109442;28;20171;-73
2021/05/17 13:45:42;;;;;;;0.10;0.10;;;16.90;99.90;;;;;;5091021;28;20249;-73
2021/05/17 13:48:08;;;;;;;0.10;0.10;;;17.10;99.90;;;;;;5109419;28;20209;-73
2021/05/17 13:50:34;;;;;;;0.20;0.20;;;17.00;99.90;;;;;;5087496;28;20186;-72
2021/05/17 13:53:00;;;;;;;5.38;1.17;;;17.30;99.90;;;;;;5070847;28;20168;-73
2021/05/17 13:55:26;;;;;;;0.17;0.17;;;17.40;99.90;;;;;;5070822;28;20225;-73